Time;durP1;ratioP1;P1;durP2;ratioP2;P2;SDS_P1;SDS_P2;PMS_P1;PMS_P2;Temp;Humidity;BMP_temperature;BMP_pressure;BME280_temperature;BME280_humidity;BME280_pressure;Samples;Min_cycle;Max_cycle;Signal;HPM_P1;HPM_P2
2022/09/12 00:01:13;;;;;;;3.63;2.70;;;17.10;93.70;;;;;;5053660;28;20526;-79
2022/09/12 00:03:39;;;;;;;4.03;2.88;;;17.20;93.70;;;;;;5058948;28;20024;-78
2022/09/12 00:06:15;;;;;;;4.30;2.85;;;17.10;93.80;;;;;;5048142;28;20169;-78
2022/09/12 00:08:40;;;;;;;3.90;2.80;;;17.10;93.70;;;;;;5069391;28;20036;-78
2022/09/12 00:11:08;;;;;;;4.53;2.70;;;17.00;93.80;;;;;;5052488;28;20020;-80
2022/09/12 00:13:34;;;;;;;3.70;2.90;;;17.00;93.80;;;;;;5047971;28;20039;-80
2022/09/12 00:16:00;;;;;;;5.38;2.95;;;16.90;93.80;;;;;;5042795;28;20035;-80
2022/09/12 00:18:26;;;;;;;3.13;2.50;;;16.90;93.90;;;;;;5052538;28;20028;-80
2022/09/12 00:20:51;;;;;;;3.85;2.75;;;16.90;94.00;;;;;;5058678;28;20361;-80
2022/09/12 00:23:17;;;;;;;3.27;2.70;;;16.80;94.00;;;;;;5035085;28;20216;-80
2022/09/12 00:25:44;;;;;;;3.47;2.90;;;16.80;94.00;;;;;;5044529;28;20024;-80
2022/09/12 00:28:11;;;;;;;3.50;2.60;;;16.80;94.10;;;;;;5020626;28;20040;-80
2022/09/12 00:30:44;;;;;;;5.18;2.75;;;16.70;94.10;;;;;;5059492;28;20475;-80
2022/09/12 00:33:10;;;;;;;3.90;2.58;;;16.70;94.10;;;;;;5032198;28;20373;-80
2022/09/12 00:35:44;;;;;;;3.88;2.90;;;16.70;94.20;;;;;;5073729;28;20020;-80
2022/09/12 00:38:12;;;;;;;4.03;2.72;;;16.70;94.20;;;;;;5063601;27;20085;-80
2022/09/12 00:40:39;;;;;;;3.77;2.83;;;16.70;94.40;;;;;;5065669;28;20035;-80
2022/09/12 00:43:09;;;;;;;4.40;2.70;;;16.60;94.40;;;;;;5028640;28;20593;-80
2022/09/12 00:45:35;;;;;;;3.55;2.70;;;16.60;94.40;;;;;;5058315;28;20492;-80
2022/09/12 00:48:03;;;;;;;4.43;2.78;;;16.60;94.30;;;;;;5043828;28;20063;-80
2022/09/12 00:50:31;;;;;;;3.80;2.60;;;16.60;94.30;;;;;;5054840;28;20042;-80
2022/09/12 00:53:07;;;;;;;3.35;2.45;;;16.60;94.30;;;;;;5063941;27;20406;-80
2022/09/12 00:55:40;;;;;;;3.80;2.55;;;16.60;94.20;;;;;;5057571;28;20364;-80
2022/09/12 00:58:20;;;;;;;4.75;2.90;;;16.50;94.20;;;;;;5061497;28;20038;-79
2022/09/12 01:00:46;;;;;;;3.40;2.45;;;16.50;94.30;;;;;;5043883;28;20047;-80
2022/09/12 01:03:14;;;;;;;3.33;2.67;;;16.50;94.40;;;;;;5063676;27;20497;-80
2022/09/12 01:05:45;;;;;;;4.95;2.53;;;16.40;94.40;;;;;;5037248;28;20511;-80
2022/09/12 01:08:11;;;;;;;3.60;2.80;;;16.40;94.40;;;;;;5052510;28;20396;-80
2022/09/12 01:10:39;;;;;;;3.90;2.75;;;16.40;94.50;;;;;;5062680;28;20023;-80
2022/09/12 01:13:07;;;;;;;3.88;2.70;;;16.30;94.50;;;;;;5057450;28;20512;-80
2022/09/12 01:15:35;;;;;;;3.97;2.67;;;16.30;94.60;;;;;;5048495;28;20507;-81
2022/09/12 01:18:23;;;;;;;3.58;2.50;;;16.30;94.70;;;;;;5043834;28;20233;-80
2022/09/12 01:21:36;;;;;;;3.92;2.55;;;16.30;94.60;;;;;;5068056;28;20065;-80
2022/09/12 01:24:30;;;;;;;3.33;2.38;;;16.30;94.40;;;;;;5006269;28;20056;-80
2022/09/12 01:27:11;;;;;;;3.35;2.40;;;16.30;94.60;;;;;;5059608;28;20086;-80
2022/09/12 01:30:00;;;;;;;3.60;2.27;;;16.20;94.50;;;;;;5044020;28;20382;-80
2022/09/12 01:32:45;;;;;;;3.25;2.50;;;16.20;94.60;;;;;;5054754;28;20222;-80
2022/09/12 01:35:30;;;;;;;4.15;2.67;;;16.20;94.60;;;;;;5034198;28;20499;-80
2022/09/12 01:38:20;;;;;;;4.32;2.72;;;16.10;94.90;;;;;;5065973;28;20233;-80
2022/09/12 01:41:12;;;;;;;3.67;2.47;;;16.10;94.80;;;;;;5031240;28;20032;-81
2022/09/12 01:44:23;;;;;;;3.47;2.43;;;16.10;94.90;;;;;;5064064;28;20036;-80
2022/09/12 01:47:19;;;;;;;3.90;2.88;;;16.10;94.90;;;;;;5012785;28;20047;-80
2022/09/12 01:50:26;;;;;;;3.88;2.75;;;16.00;94.90;;;;;;5042473;28;20040;-80
2022/09/12 01:52:59;;;;;;;3.90;2.65;;;16.00;94.80;;;;;;4979612;28;20113;-81
2022/09/12 01:55:41;;;;;;;3.90;2.92;;;16.00;95.00;;;;;;4994866;28;20493;-80
2022/09/12 01:58:09;;;;;;;4.77;2.73;;;16.00;95.20;;;;;;5040566;28;20055;-80
2022/09/12 02:00:42;;;;;;;3.92;2.80;;;16.00;95.10;;;;;;5046375;28;20035;-81
2022/09/12 02:03:18;;;;;;;6.03;3.30;;;16.00;95.20;;;;;;5059193;28;22155;-81
2022/09/12 02:05:49;;;;;;;4.47;2.90;;;15.90;95.20;;;;;;5008440;28;20674;-80
2022/09/12 02:08:23;;;;;;;4.40;3.03;;;16.00;95.30;;;;;;5057375;28;20054;-81
2022/09/12 02:10:56;;;;;;;4.43;3.00;;;15.90;95.30;;;;;;5050771;28;20020;-81
2022/09/12 02:13:36;;;;;;;4.40;2.83;;;15.90;95.30;;;;;;5051947;28;20073;-81
2022/09/12 02:16:16;;;;;;;5.13;3.20;;;15.90;95.40;;;;;;5048740;28;20024;-81
2022/09/12 02:18:46;;;;;;;5.03;2.92;;;15.90;95.40;;;;;;5048506;28;20024;-81
2022/09/12 02:21:12;;;;;;;4.45;3.00;;;15.90;95.40;;;;;;5054314;28;20023;-81
2022/09/12 02:23:44;;;;;;;4.80;3.20;;;15.80;95.40;;;;;;5056363;28;20028;-81
2022/09/12 02:26:22;;;;;;;5.30;2.88;;;15.80;95.50;;;;;;5049562;28;20099;-81
2022/09/12 02:28:48;;;;;;;5.18;3.17;;;15.80;95.40;;;;;;5031538;28;20060;-81
2022/09/12 02:31:19;;;;;;;4.80;3.03;;;15.80;95.60;;;;;;5057734;28;20103;-82
2022/09/12 02:34:07;;;;;;;5.97;3.20;;;15.80;95.60;;;;;;5036574;28;20036;-81
2022/09/12 02:36:50;;;;;;;4.47;3.00;;;15.80;95.50;;;;;;5065615;28;20052;-81
2022/09/12 02:39:18;;;;;;;5.45;3.28;;;15.80;95.60;;;;;;5041648;28;20046;-81
2022/09/12 02:41:57;;;;;;;4.95;3.30;;;15.80;95.70;;;;;;5052505;28;20035;-81
2022/09/12 02:44:25;;;;;;;5.50;3.28;;;15.80;95.70;;;;;;5056230;28;20025;-81
2022/09/12 02:46:56;;;;;;;5.00;3.28;;;15.80;95.80;;;;;;5066000;28;20859;-81
2022/09/12 02:49:22;;;;;;;5.13;3.37;;;15.70;95.70;;;;;;5045560;28;20033;-81
2022/09/12 02:51:48;;;;;;;5.35;3.35;;;15.70;95.80;;;;;;5062378;28;20851;-81
2022/09/12 02:54:15;;;;;;;5.70;3.28;;;15.70;95.80;;;;;;5046075;28;20210;-81
2022/09/12 02:56:43;;;;;;;4.95;3.05;;;15.70;95.80;;;;;;5056753;28;20025;-82
2022/09/12 02:59:12;;;;;;;4.47;3.17;;;15.70;95.80;;;;;;5044010;28;20248;-82
2022/09/12 03:01:38;;;;;;;4.57;3.30;;;15.70;95.80;;;;;;5057450;28;20032;-81
2022/09/12 03:04:29;;;;;;;4.53;3.30;;;15.70;95.90;;;;;;5031335;28;20032;-81
2022/09/12 03:07:25;;;;;;;4.10;2.73;;;15.60;95.80;;;;;;5057147;28;20046;-81
2022/09/12 03:10:18;;;;;;;5.90;3.15;;;15.60;95.70;;;;;;5069090;28;20086;-81
2022/09/12 03:13:12;;;;;;;5.15;3.40;;;15.60;95.80;;;;;;5063951;28;20036;-81
2022/09/12 03:15:43;;;;;;;5.40;3.38;;;15.60;95.70;;;;;;5079078;28;20039;-82
2022/09/12 03:18:16;;;;;;;4.75;3.33;;;15.60;95.70;;;;;;5040272;28;20032;-81
2022/09/12 03:20:49;;;;;;;5.40;3.03;;;15.50;95.80;;;;;;5062818;28;20547;-82
2022/09/12 03:23:44;;;;;;;5.45;3.42;;;15.50;95.90;;;;;;5039941;28;20412;-81
2022/09/12 03:26:19;;;;;;;4.95;3.00;;;15.50;95.90;;;;;;5015554;28;20034;-81
2022/09/12 03:28:47;;;;;;;4.60;3.05;;;15.50;95.80;;;;;;5052953;28;20090;-81
2022/09/12 03:31:18;;;;;;;4.85;3.33;;;15.50;95.90;;;;;;5077990;28;20063;-81
2022/09/12 03:33:45;;;;;;;4.47;3.10;;;15.40;95.90;;;;;;5056271;28;20123;-81
2022/09/12 03:36:30;;;;;;;4.78;3.22;;;15.40;96.00;;;;;;5053892;28;20054;-82
2022/09/12 03:38:55;;;;;;;4.93;3.20;;;15.50;95.80;;;;;;5040616;28;20269;-82
2022/09/12 03:41:21;;;;;;;4.80;3.13;;;15.40;95.90;;;;;;5056985;28;20484;-82
2022/09/12 03:43:47;;;;;;;5.13;3.57;;;15.40;95.90;;;;;;5051484;28;20348;-81
2022/09/12 03:46:13;;;;;;;6.13;3.70;;;15.40;96.00;;;;;;5048960;28;20033;-81
2022/09/12 03:48:40;;;;;;;5.43;3.10;;;15.30;95.90;;;;;;5069927;27;20365;-82
2022/09/12 03:51:07;;;;;;;4.73;3.20;;;15.30;96.00;;;;;;5052715;27;20306;-82
2022/09/12 03:53:33;;;;;;;5.88;3.38;;;15.30;96.00;;;;;;5066633;27;20406;-82
2022/09/12 03:55:59;;;;;;;4.88;3.33;;;15.30;96.10;;;;;;5058416;28;20050;-82
2022/09/12 03:58:29;;;;;;;5.78;3.45;;;15.30;96.20;;;;;;5069272;28;22567;-82
2022/09/12 04:00:55;;;;;;;6.30;3.47;;;15.30;96.10;;;;;;5054711;28;20491;-82
2022/09/12 04:03:20;;;;;;;4.70;2.97;;;15.20;96.20;;;;;;5053701;28;20323;-82
2022/09/12 04:05:46;;;;;;;5.30;3.40;;;15.20;96.20;;;;;;5063134;27;20044;-82
2022/09/12 04:08:13;;;;;;;5.63;3.47;;;15.20;96.30;;;;;;5046666;28;20032;-82
2022/09/12 04:10:39;;;;;;;6.13;3.72;;;15.20;96.30;;;;;;5061068;28;20027;-82
2022/09/12 04:13:04;;;;;;;7.50;4.15;;;15.20;96.40;;;;;;5076836;28;20031;-82
2022/09/12 04:15:30;;;;;;;5.87;3.67;;;15.20;96.50;;;;;;5046686;28;20248;-82
2022/09/12 04:17:55;;;;;;;6.07;3.47;;;15.20;96.50;;;;;;5030235;28;20115;-82
2022/09/12 04:20:21;;;;;;;5.20;3.53;;;15.20;96.60;;;;;;5071486;28;20025;-82
2022/09/12 04:22:47;;;;;;;6.83;3.97;;;15.20;96.60;;;;;;5056649;27;20141;-82
2022/09/12 04:25:13;;;;;;;6.07;3.80;;;15.20;96.70;;;;;;5048707;28;20316;-82
2022/09/12 04:27:38;;;;;;;5.20;3.40;;;15.20;96.80;;;;;;5076974;28;20331;-82
2022/09/12 04:30:05;;;;;;;6.28;3.30;;;15.20;96.80;;;;;;5056050;28;20600;-82
2022/09/12 04:32:30;;;;;;;6.38;3.75;;;15.20;96.90;;;;;;5049647;28;20028;-82
2022/09/12 04:34:57;;;;;;;6.07;3.60;;;15.20;97.20;;;;;;5054619;28;20385;-82
2022/09/12 04:37:23;;;;;;;5.28;3.53;;;15.20;97.00;;;;;;5031769;28;20020;-81
2022/09/12 04:39:50;;;;;;;5.05;3.50;;;15.10;97.00;;;;;;5051560;28;20051;-82
2022/09/12 04:42:16;;;;;;;6.50;4.13;;;15.10;97.00;;;;;;5056667;28;20027;-82
2022/09/12 04:44:42;;;;;;;5.00;3.20;;;15.20;97.00;;;;;;5060857;28;20020;-82
2022/09/12 04:47:08;;;;;;;5.55;3.70;;;15.20;97.00;;;;;;5030506;28;20055;-82
2022/09/12 04:49:33;;;;;;;6.03;3.70;;;15.10;97.00;;;;;;5050934;28;20024;-82
2022/09/12 04:51:59;;;;;;;5.87;3.47;;;15.10;97.00;;;;;;5026383;28;20051;-82
2022/09/12 04:54:25;;;;;;;6.73;3.70;;;15.10;96.90;;;;;;5061779;28;20036;-82
2022/09/12 04:56:51;;;;;;;5.32;3.22;;;15.10;96.90;;;;;;5050183;28;20133;-82
2022/09/12 04:59:19;;;;;;;4.82;3.15;;;15.10;97.00;;;;;;5061018;28;20057;-82
2022/09/12 05:01:45;;;;;;;5.20;3.30;;;15.10;96.90;;;;;;5054841;27;20615;-82
2022/09/12 05:04:12;;;;;;;5.18;3.47;;;15.10;96.90;;;;;;5046747;28;20032;-82
2022/09/12 05:06:39;;;;;;;5.73;3.27;;;15.10;97.20;;;;;;5044262;28;20048;-82
2022/09/12 05:09:06;;;;;;;4.38;2.88;;;15.10;96.80;;;;;;5042049;28;20092;-82
2022/09/12 05:11:35;;;;;;;4.45;2.95;;;15.00;96.80;;;;;;5054296;28;20034;-82
2022/09/12 05:14:01;;;;;;;4.60;3.08;;;15.00;96.70;;;;;;5047979;28;20242;-82
2022/09/12 05:16:28;;;;;;;5.60;3.15;;;15.00;96.80;;;;;;5048389;28;20028;-82
2022/09/12 05:18:55;;;;;;;4.43;2.93;;;15.00;96.80;;;;;;5049253;28;21593;-82
2022/09/12 05:21:22;;;;;;;5.53;3.13;;;15.00;96.80;;;;;;5077854;27;20079;-82
2022/09/12 05:23:51;;;;;;;4.95;3.40;;;14.90;96.80;;;;;;5004897;28;20085;-82
2022/09/12 05:26:17;;;;;;;5.65;3.25;;;14.90;96.80;;;;;;5045076;28;20154;-82
2022/09/12 05:28:44;;;;;;;5.43;3.20;;;14.90;96.80;;;;;;5066487;28;20024;-82
2022/09/12 05:31:11;;;;;;;5.27;3.33;;;14.90;96.80;;;;;;5050436;28;20028;-82
2022/09/12 05:33:39;;;;;;;5.68;3.30;;;14.90;96.80;;;;;;5041042;28;20387;-82
2022/09/12 05:36:08;;;;;;;5.50;3.40;;;14.90;96.90;;;;;;5054953;28;20181;-82
2022/09/12 05:38:34;;;;;;;5.10;3.10;;;14.80;96.90;;;;;;5033347;28;20024;-82
2022/09/12 05:41:11;;;;;;;5.23;3.03;;;14.80;96.90;;;;;;5040724;28;20751;-82
2022/09/12 05:43:40;;;;;;;4.72;3.10;;;14.80;96.80;;;;;;5048516;28;20074;-82
2022/09/12 05:46:08;;;;;;;4.82;2.88;;;14.80;97.00;;;;;;5052649;28;20645;-82
2022/09/12 05:48:35;;;;;;;4.28;2.85;;;14.80;97.00;;;;;;5031088;28;20044;-81
2022/09/12 05:51:09;;;;;;;5.40;3.27;;;14.80;97.00;;;;;;5047490;28;21152;-82
2022/09/12 05:53:36;;;;;;;4.68;2.97;;;14.70;97.00;;;;;;5050084;28;20031;-81
2022/09/12 05:56:15;;;;;;;5.25;3.15;;;14.80;97.10;;;;;;5034356;28;20247;-81
2022/09/12 05:58:43;;;;;;;4.55;2.50;;;14.70;97.10;;;;;;5051046;28;20488;-82
2022/09/12 06:01:18;;;;;;;5.43;3.05;;;14.70;97.20;;;;;;5058569;28;20652;-82
2022/09/12 06:03:46;;;;;;;4.97;2.97;;;14.70;97.20;;;;;;5035593;28;20424;-80
2022/09/12 06:06:14;;;;;;;5.85;3.15;;;14.70;97.50;;;;;;5047208;28;20044;-82
2022/09/12 06:08:42;;;;;;;5.28;3.33;;;14.70;97.60;;;;;;5058272;28;20081;-81
2022/09/12 06:11:10;;;;;;;5.57;3.28;;;14.70;97.70;;;;;;5027967;28;20133;-81
2022/09/12 06:13:39;;;;;;;5.65;3.08;;;14.70;97.80;;;;;;5035657;28;20044;-82
2022/09/12 06:16:07;;;;;;;4.53;2.53;;;14.70;97.90;;;;;;5061675;28;20056;-82
2022/09/12 06:18:34;;;;;;;4.45;2.90;;;14.70;98.00;;;;;;5037436;28;20265;-82
2022/09/12 06:21:11;;;;;;;5.50;2.97;;;14.80;98.40;;;;;;5052777;28;20039;-82
2022/09/12 06:23:37;;;;;;;4.93;3.22;;;14.80;98.10;;;;;;5041467;28;20249;-81
2022/09/12 06:26:04;;;;;;;4.88;3.28;;;14.80;98.30;;;;;;5019445;28;20027;-82
2022/09/12 06:28:32;;;;;;;4.93;3.20;;;14.80;98.40;;;;;;5034551;28;20317;-81
2022/09/12 06:31:21;;;;;;;4.57;2.92;;;14.80;98.60;;;;;;5064078;28;20081;-81
2022/09/12 06:33:49;;;;;;;5.40;3.25;;;14.90;98.60;;;;;;5066781;28;20028;-81
2022/09/12 06:36:37;;;;;;;5.10;3.30;;;14.90;98.90;;;;;;5052443;28;20105;-82
2022/09/12 06:39:10;;;;;;;5.18;3.38;;;15.00;98.90;;;;;;5047634;28;20327;-81
2022/09/12 06:41:35;;;;;;;5.30;3.57;;;15.00;99.20;;;;;;5033012;28;20480;-82
2022/09/12 06:44:02;;;;;;;5.57;3.70;;;15.10;99.50;;;;;;5049184;28;20047;-82
2022/09/12 06:46:29;;;;;;;5.88;3.92;;;15.10;99.60;;;;;;5045175;28;20191;-82
2022/09/12 06:48:56;;;;;;;6.03;4.10;;;15.20;99.90;;;;;;5048234;28;20040;-82
2022/09/12 06:51:22;;;;;;;7.97;3.87;;;15.30;99.90;;;;;;5047578;28;22099;-82
2022/09/12 06:53:48;;;;;;;8.18;4.45;;;15.30;99.90;;;;;;5047226;28;20024;-82
2022/09/12 06:56:18;;;;;;;7.55;4.57;;;15.40;99.90;;;;;;5032153;28;20038;-82
2022/09/12 06:58:44;;;;;;;8.63;4.80;;;15.50;99.90;;;;;;5044965;28;20052;-82
2022/09/12 07:01:14;;;;;;;7.73;4.23;;;15.60;99.90;;;;;;5043811;28;20196;-82
2022/09/12 07:03:40;;;;;;;9.85;5.18;;;15.70;99.90;;;;;;5047263;28;20048;-82
2022/09/12 07:06:11;;;;;;;9.27;4.97;;;15.80;99.90;;;;;;5040361;28;20744;-82
2022/09/12 07:08:38;;;;;;;8.35;4.90;;;16.00;99.90;;;;;;5044623;28;20024;-82
2022/09/12 07:11:12;;;;;;;8.77;5.22;;;16.10;99.90;;;;;;5038983;28;20597;-82
2022/09/12 07:13:43;;;;;;;8.17;4.57;;;16.20;99.90;;;;;;5051253;28;20028;-82
2022/09/12 07:16:10;;;;;;;9.65;5.15;;;16.40;99.90;;;;;;5049431;28;20024;-82
2022/09/12 07:18:37;;;;;;;9.32;4.78;;;16.60;99.90;;;;;;5056306;28;20411;-82
2022/09/12 07:21:05;;;;;;;8.90;5.00;;;17.00;99.90;;;;;;5067559;28;20268;-82
2022/09/12 07:23:31;;;;;;;7.68;4.70;;;17.30;99.90;;;;;;5048154;28;20105;-83
2022/09/12 07:25:58;;;;;;;6.53;4.57;;;17.80;99.90;;;;;;5032642;28;20236;-83
2022/09/12 07:28:26;;;;;;;5.80;3.80;;;18.30;99.90;;;;;;5056738;28;20040;-83
2022/09/12 07:30:52;;;;;;;7.85;4.40;;;18.80;99.90;;;;;;5058144;28;21000;-82
2022/09/12 07:33:23;;;;;;;5.60;3.80;;;19.20;99.90;;;;;;5071119;28;20016;-83
2022/09/12 07:35:49;;;;;;;5.53;3.83;;;19.70;99.90;;;;;;5057514;28;20154;-83
2022/09/12 07:38:15;;;;;;;6.20;3.73;;;20.10;99.90;;;;;;5039408;28;20542;-83
2022/09/12 07:40:41;;;;;;;4.30;3.38;;;20.60;99.90;;;;;;5064201;28;20073;-83
2022/09/12 07:43:07;;;;;;;4.82;3.17;;;21.10;99.90;;;;;;5036824;28;20255;-82
2022/09/12 07:45:33;;;;;;;3.85;3.00;;;21.60;99.90;;;;;;5043089;28;20424;-82
2022/09/12 07:47:59;;;;;;;4.47;3.40;;;22.20;99.90;;;;;;5061310;28;20130;-82
2022/09/12 07:50:25;;;;;;;4.40;3.22;;;22.70;99.90;;;;;;5061418;28;20091;-82
2022/09/12 07:52:53;;;;;;;4.45;3.25;;;23.20;99.90;;;;;;5058659;28;20111;-82
2022/09/12 07:55:20;;;;;;;4.00;2.90;;;23.70;99.90;;;;;;5061939;28;20111;-82
2022/09/12 07:57:50;;;;;;;3.60;2.90;;;24.10;99.90;;;;;;5037204;28;20633;-82
2022/09/12 08:00:16;;;;;;;3.95;2.97;;;24.50;99.90;;;;;;5085346;28;20027;-82
2022/09/12 08:02:42;;;;;;;3.72;2.90;;;24.80;99.90;;;;;;5058626;28;20028;-82
2022/09/12 08:05:08;;;;;;;3.67;3.07;;;25.10;99.90;;;;;;5071359;28;20661;-81
2022/09/12 08:07:34;;;;;;;3.45;2.83;;;25.30;99.90;;;;;;5052106;28;20028;-81
2022/09/12 08:10:00;;;;;;;3.78;3.17;;;25.60;99.90;;;;;;5066795;28;20035;-81
2022/09/12 08:12:30;;;;;;;3.63;2.90;;;25.90;99.90;;;;;;5038476;28;20393;-82
2022/09/12 08:14:56;;;;;;;3.58;2.80;;;26.10;99.60;;;;;;5065871;28;20024;-81
2022/09/12 08:17:21;;;;;;;3.63;3.13;;;26.30;99.90;;;;;;5045790;28;20073;-81
2022/09/12 08:19:47;;;;;;;3.50;2.77;;;26.50;99.90;;;;;;5071728;28;20115;-81
2022/09/12 08:22:13;;;;;;;3.00;2.70;;;26.70;99.90;;;;;;5058429;28;20274;-81
2022/09/12 08:24:38;;;;;;;3.95;3.20;;;27.00;99.90;;;;;;5070876;28;20032;-82
2022/09/12 08:27:05;;;;;;;3.03;2.53;;;27.20;99.90;;;;;;5070871;28;20047;-81
2022/09/12 08:29:31;;;;;;;3.10;2.80;;;27.50;99.50;;;;;;5063410;28;20020;-82
2022/09/12 08:31:56;;;;;;;3.20;2.90;;;27.70;99.50;;;;;;5074666;28;20548;-81
2022/09/12 08:34:23;;;;;;;3.88;2.85;;;28.00;99.50;;;;;;5072003;27;20020;-82
2022/09/12 08:36:49;;;;;;;2.63;2.30;;;28.40;99.40;;;;;;5080170;28;20081;-82
2022/09/12 08:39:15;;;;;;;3.65;2.90;;;28.60;99.00;;;;;;5067257;28;20036;-82
2022/09/12 08:41:46;;;;;;;3.05;2.75;;;28.90;98.60;;;;;;5060502;28;20024;-82
2022/09/12 08:44:21;;;;;;;3.30;2.63;;;29.20;97.50;;;;;;5038566;28;20043;-81
2022/09/12 08:47:05;;;;;;;3.80;2.50;;;29.40;98.20;;;;;;5045592;28;20029;-82
2022/09/12 08:50:09;;;;;;;3.00;2.60;;;29.70;94.10;;;;;;5054989;28;20315;-82
2022/09/12 08:53:23;;;;;;;3.08;2.50;;;30.00;93.50;;;;;;5041315;28;20058;-82
2022/09/12 08:55:58;;;;;;;2.92;2.63;;;30.30;93.50;;;;;;5062153;28;20032;-82
2022/09/12 08:58:27;;;;;;;2.30;2.10;;;30.70;94.60;;;;;;5055676;28;20036;-81
2022/09/12 09:01:07;;;;;;;2.70;2.13;;;30.90;96.60;;;;;;5058334;28;20017;-82
2022/09/12 09:03:47;;;;;;;2.92;2.50;;;31.30;92.90;;;;;;5073257;28;20040;-82
2022/09/12 09:06:37;;;;;;;2.80;2.50;;;31.60;94.20;;;;;;5041730;28;20032;-82
2022/09/12 09:09:18;;;;;;;2.53;2.33;;;32.00;94.00;;;;;;5061787;28;20064;-83
2022/09/12 09:11:53;;;;;;;3.03;2.30;;;32.30;95.00;;;;;;5077207;28;20024;-81
2022/09/12 09:14:48;;;;;;;3.08;2.72;;;32.60;94.20;;;;;;5056910;28;20639;-82
2022/09/12 09:17:26;;;;;;;2.53;2.33;;;32.90;91.50;;;;;;5038592;28;20020;-82
2022/09/12 09:20:03;;;;;;;2.67;2.47;;;33.20;90.40;;;;;;5056183;28;20097;-82
2022/09/12 09:22:47;;;;;;;2.60;2.40;;;33.40;92.50;;;;;;5047230;28;20125;-83
2022/09/12 09:25:32;;;;;;;3.87;2.57;;;33.60;90.80;;;;;;5064090;28;20491;-83
2022/09/12 09:28:05;;;;;;;2.55;2.20;;;33.70;91.70;;;;;;5075310;28;20237;-83
2022/09/12 09:30:34;;;;;;;2.42;2.22;;;33.90;91.20;;;;;;5045916;28;20020;-83
2022/09/12 09:33:05;;;;;;;2.40;2.20;;;34.00;92.10;;;;;;5076115;28;20573;-83
2022/09/12 09:35:45;;;;;;;2.70;2.33;;;34.10;91.60;;;;;;5045591;28;20025;-83
2022/09/12 09:38:21;;;;;;;2.40;2.20;;;34.30;88.30;;;;;;5046045;28;20542;-83
2022/09/12 09:40:56;;;;;;;2.63;2.42;;;34.40;90.20;;;;;;5048533;28;20129;-83
2022/09/12 09:43:27;;;;;;;2.15;1.95;;;34.50;91.30;;;;;;5076671;28;20028;-83
2022/09/12 09:45:55;;;;;;;1.98;1.88;;;34.60;92.30;;;;;;5041436;28;20633;-83
2022/09/12 09:48:30;;;;;;;2.85;2.50;;;34.70;92.90;;;;;;5056244;28;20109;-83
2022/09/12 09:50:59;;;;;;;2.30;2.10;;;34.80;89.50;;;;;;5053890;28;20046;-83
2022/09/12 09:54:00;;;;;;;2.55;2.35;;;35.00;92.70;;;;;;5076564;27;20016;-83
2022/09/12 09:56:26;;;;;;;2.20;2.10;;;35.20;86.60;;;;;;5009734;28;20040;-82
2022/09/12 09:58:52;;;;;;;2.30;2.10;;;35.40;93.30;;;;;;5068970;28;20066;-83
2022/09/12 10:01:18;;;;;;;2.42;2.15;;;35.60;93.00;;;;;;5036455;28;20160;-83
2022/09/12 10:03:54;;;;;;;2.50;2.30;;;35.80;92.90;;;;;;5066986;28;20059;-83
2022/09/12 10:06:33;;;;;;;2.50;2.30;;;36.00;87.70;;;;;;5064673;28;20366;-83
2022/09/12 10:09:17;;;;;;;2.03;1.93;;;36.20;77.00;;;;;;5047774;28;20301;-83
2022/09/12 10:11:42;;;;;;;2.20;2.10;;;36.20;84.10;;;;;;5061852;28;20561;-83
2022/09/12 10:14:27;;;;;;;2.47;2.28;;;36.30;90.50;;;;;;5068586;28;20024;-84
2022/09/12 10:16:53;;;;;;;2.30;2.10;;;36.40;80.60;;;;;;5056855;28;20403;-83
2022/09/12 10:19:36;;;;;;;2.30;2.00;;;36.40;90.50;;;;;;5074684;28;20024;-83
2022/09/12 10:22:04;;;;;;;2.47;2.28;;;36.60;86.20;;;;;;5073056;28;20077;-83
2022/09/12 10:24:38;;;;;;;2.40;2.10;;;36.70;90.50;;;;;;5067058;28;20492;-81
2022/09/12 10:27:14;;;;;;;2.42;2.22;;;36.80;85.30;;;;;;5043805;28;20138;-83
2022/09/12 10:30:00;;;;;;;2.70;2.50;;;37.00;84.90;;;;;;5075321;28;20407;-83
2022/09/12 10:32:33;;;;;;;2.53;2.33;;;37.10;88.90;;;;;;5042070;28;20465;-82
2022/09/12 10:35:02;;;;;;;2.25;2.15;;;37.30;87.20;;;;;;5072760;28;20023;-83
2022/09/12 10:37:38;;;;;;;2.33;2.13;;;37.40;88.90;;;;;;5064165;28;20102;-83
2022/09/12 10:40:08;;;;;;;2.40;2.20;;;37.50;85.80;;;;;;5061234;28;20177;-83
2022/09/12 10:42:44;;;;;;;2.75;2.55;;;37.60;84.50;;;;;;5059579;28;20521;-84
2022/09/12 10:45:34;;;;;;;2.45;2.25;;;37.70;76.70;;;;;;5069008;28;20081;-84
2022/09/12 10:48:03;;;;;;;2.45;2.25;;;37.70;78.30;;;;;;5048782;28;20052;-84
2022/09/12 10:50:37;;;;;;;2.80;2.13;;;37.90;84.90;;;;;;5054654;28;20051;-84
2022/09/12 10:53:17;;;;;;;2.10;1.77;;;37.90;79.20;;;;;;5043773;28;20850;-84
2022/09/12 10:56:01;;;;;;;2.55;2.35;;;38.00;77.20;;;;;;5056660;28;20052;-83
2022/09/12 10:58:50;;;;;;;2.42;2.22;;;38.00;75.50;;;;;;5058571;28;20385;-83
2022/09/12 11:01:31;;;;;;;2.50;2.35;;;38.10;75.00;;;;;;5067526;28;20028;-84
2022/09/12 11:04:18;;;;;;;2.47;2.27;;;38.20;70.40;;;;;;5036884;28;20079;-84
2022/09/12 11:07:00;;;;;;;2.63;2.30;;;38.20;75.40;;;;;;5073317;28;20016;-83
2022/09/12 11:10:04;;;;;;;2.40;2.20;;;38.30;74.50;;;;;;5044077;28;20028;-84
2022/09/12 11:13:11;;;;;;;2.30;2.10;;;38.30;74.10;;;;;;5058727;28;20044;-83
2022/09/12 11:16:02;;;;;;;2.67;2.47;;;38.30;77.20;;;;;;5052097;28;20024;-81
2022/09/12 11:19:06;;;;;;;2.30;2.10;;;38.40;75.20;;;;;;5059123;28;20031;-84
2022/09/12 11:21:50;;;;;;;2.53;2.33;;;38.40;75.10;;;;;;5070270;28;20028;-83
2022/09/12 11:24:33;;;;;;;2.63;2.42;;;38.40;71.40;;;;;;5070090;28;20042;-83
2022/09/12 11:27:25;;;;;;;2.58;2.10;;;38.50;72.30;;;;;;5067046;28;20211;-83
2022/09/12 11:30:12;;;;;;;2.67;2.47;;;38.60;74.60;;;;;;5059813;28;20343;-84
2022/09/12 11:33:00;;;;;;;2.70;2.50;;;38.60;71.20;;;;;;5064588;28;20443;-82
2022/09/12 11:35:31;;;;;;;2.08;1.98;;;38.70;72.70;;;;;;5071877;28;20327;-84
2022/09/12 11:38:34;;;;;;;2.58;2.38;;;38.70;72.50;;;;;;5065872;28;20698;-83
2022/09/12 11:41:06;;;;;;;2.72;2.10;;;38.70;70.30;;;;;;5068509;28;20248;-83
2022/09/12 11:43:50;;;;;;;2.28;2.10;;;38.70;75.70;;;;;;5064447;28;20016;-82
2022/09/12 11:46:39;;;;;;;2.30;2.10;;;38.80;68.30;;;;;;5055509;28;20037;-82
2022/09/12 11:49:08;;;;;;;2.35;2.15;;;38.90;69.00;;;;;;5043992;28;20020;-82
2022/09/12 11:51:55;;;;;;;2.50;2.30;;;39.00;72.70;;;;;;5060354;28;20039;-82
2022/09/12 11:54:59;;;;;;;2.08;1.98;;;39.20;71.10;;;;;;5058219;28;20128;-83
2022/09/12 11:57:33;;;;;;;2.35;2.17;;;39.30;68.50;;;;;;5067184;28;20036;-82
2022/09/12 12:00:31;;;;;;;2.70;2.50;;;39.40;75.80;;;;;;5055734;28;20190;-83
2022/09/12 12:03:25;;;;;;;2.42;2.22;;;39.60;69.70;;;;;;5089171;28;20025;-82
2022/09/12 12:06:05;;;;;;;2.35;2.15;;;39.70;65.80;;;;;;5053767;28;20225;-83
2022/09/12 12:08:37;;;;;;;2.38;2.17;;;39.70;65.60;;;;;;5071143;28;20056;-84
2022/09/12 12:11:04;;;;;;;2.90;2.25;;;39.60;66.50;;;;;;5058301;28;20210;-83
2022/09/12 12:13:39;;;;;;;2.20;2.00;;;39.50;68.60;;;;;;5070151;28;20036;-83
2022/09/12 12:16:33;;;;;;;2.15;1.95;;;39.50;62.30;;;;;;5045928;28;20056;-83
2022/09/12 12:19:31;;;;;;;2.40;2.20;;;39.50;62.80;;;;;;5055834;28;20564;-83
2022/09/12 12:22:11;;;;;;;1.92;1.83;;;39.40;54.70;;;;;;5041960;28;20033;-82
2022/09/12 12:25:11;;;;;;;2.08;1.98;;;39.30;59.10;;;;;;5096157;28;20381;-84
2022/09/12 12:27:43;;;;;;;1.97;1.70;;;39.20;57.90;;;;;;5077502;27;20377;-84
2022/09/12 12:30:28;;;;;;;2.33;2.13;;;39.00;59.70;;;;;;5047913;28;20850;-83
2022/09/12 12:33:06;;;;;;;2.17;1.88;;;38.90;58.40;;;;;;5041440;28;20040;-81
2022/09/12 12:35:35;;;;;;;1.90;1.80;;;38.90;57.50;;;;;;5041132;28;20174;-84
2022/09/12 12:38:01;;;;;;;2.20;2.00;;;38.80;61.30;;;;;;5076460;28;20043;-82
2022/09/12 12:40:29;;;;;;;1.80;1.70;;;38.80;63.60;;;;;;5060171;28;20024;-83
2022/09/12 12:42:55;;;;;;;2.33;1.90;;;38.70;62.00;;;;;;5054936;28;20013;-83
2022/09/12 12:45:26;;;;;;;2.10;2.00;;;38.70;62.80;;;;;;5059566;28;20501;-83
2022/09/12 12:48:00;;;;;;;1.90;1.80;;;38.60;57.90;;;;;;5060487;28;20556;-83
2022/09/12 12:50:29;;;;;;;2.08;1.80;;;38.50;61.10;;;;;;5060048;28;20647;-83
2022/09/12 12:53:00;;;;;;;2.03;1.83;;;38.30;60.10;;;;;;5059899;28;20073;-83
2022/09/12 12:55:37;;;;;;;2.03;1.92;;;38.20;58.00;;;;;;5065590;28;20046;-83
2022/09/12 12:58:06;;;;;;;1.92;1.60;;;38.00;59.00;;;;;;5055562;28;20553;-82
2022/09/12 13:00:38;;;;;;;1.83;1.70;;;37.90;60.00;;;;;;5062098;28;20382;-83
2022/09/12 13:03:07;;;;;;;2.20;2.00;;;37.90;59.50;;;;;;5045493;28;20706;-83
2022/09/12 13:05:40;;;;;;;1.85;1.75;;;37.90;61.50;;;;;;5057067;28;20024;-82
2022/09/12 13:08:19;;;;;;;2.10;2.00;;;37.90;56.80;;;;;;5064624;28;20063;-83
2022/09/12 13:10:57;;;;;;;2.03;1.92;;;38.00;57.10;;;;;;5057474;28;20554;-83
2022/09/12 13:13:43;;;;;;;2.00;1.90;;;38.10;57.50;;;;;;5067898;28;20702;-83
2022/09/12 13:16:10;;;;;;;1.98;1.70;;;38.20;56.60;;;;;;5034508;28;20327;-84
2022/09/12 13:18:44;;;;;;;1.52;1.42;;;38.10;59.60;;;;;;5059312;28;20074;-84
2022/09/12 13:21:18;;;;;;;1.60;1.50;;;38.00;55.50;;;;;;5033968;28;20550;-84